Time,TemperatureF,DewpointF,PressureIn,WindDirection,WindDirectionDegrees,WindSpeedMPH,WindSpeedGustMPH,Humidity,HourlyPrecipIn,Conditions,Clouds,dailyrainin,SoftwareType,DateUTC
2013-01-24 00:17:00,37.7,28.0,30.10,WSW,248,1.0,-999.0,68,-99.99,,,0.00,weatherlink.com 1.10,2013-01-24 05:17:00,
2013-01-24 00:32:00,37.9,28.0,30.08,West,271,3.0,-999.0,67,-99.99,,,0.00,weatherlink.com 1.10,2013-01-24 05:32:00,
2013-01-24 00:48:00,38.2,28.0,30.08,SW,236,1.0,-999.0,67,-99.99,,,0.00,weatherlink.com 1.10,2013-01-24 05:48:00,
2013-01-24 01:03:00,38.5,28.0,30.06,SW,236,3.0,-999.0,67,-99.99,,,0.00,weatherlink.com 1.10,2013-01-24 06:03:00,
2013-01-24 01:17:00,39.3,28.0,30.06,WSW,238,6.0,-999.0,65,-99.99,,,0.00,weatherlink.com 1.10,2013-01-24 06:17:00,
2013-01-24 01:33:00,40.1,29.0,30.05,SW,225,1.0,-999.0,64,-99.99,,,0.00,weatherlink.com 1.10,2013-01-24 06:33:00,
2013-01-24 01:48:00,40.6,29.0,30.05,WSW,238,6.0,-999.0,63,-99.99,,,0.00,weatherlink.com 1.10,2013-01-24 06:48:00,
2013-01-24 02:03:00,40.6,29.0,30.05,WSW,248,4.0,-999.0,63,-99.99,,,0.00,weatherlink.com 1.10,2013-01-24 07:03:00,
2013-01-24 02:18:00,40.6,29.0,30.05,SW,228,4.0,-999.0,63,-99.99,,,0.00,weatherlink.com 1.10,2013-01-24 07:18:00,
2013-01-24 02:33:00,40.6,29.0,30.04,WSW,238,3.0,-999.0,64,-99.99,,,0.00,weatherlink.com 1.10,2013-01-24 07:33:00,
2013-01-24 02:48:00,41.0,30.0,30.03,SW,232,3.0,-999.0,64,-99.99,,,0.00,weatherlink.com 1.10,2013-01-24 07:48:00,
2013-01-24 03:03:00,41.5,30.0,30.03,WSW,240,7.0,-999.0,63,-99.99,,,0.00,weatherlink.com 1.10,2013-01-24 08:03:00,
2013-01-24 03:18:00,41.6,30.0,30.02,SW,214,4.0,-999.0,63,-99.99,,,0.00,weatherlink.com 1.10,2013-01-24 08:18:00,
2013-01-24 03:34:00,41.6,30.0,30.02,SW,236,4.0,-999.0,64,-99.99,,,0.00,weatherlink.com 1.10,2013-01-24 08:34:00,
2013-01-24 03:48:00,41.6,30.0,30.02,WSW,244,2.0,-999.0,64,-99.99,,,0.00,weatherlink.com 1.10,2013-01-24 08:48:00,
2013-01-24 04:03:00,41.4,30.0,30.02,SW,231,1.0,-999.0,65,-99.99,,,0.00,weatherlink.com 1.10,2013-01-24 09:03:00,
2013-01-24 04:19:00,41.4,31.0,30.02,SSW,207,0.0,-999.0,66,-99.99,,,0.00,weatherlink.com 1.10,2013-01-24 09:19:00,
2013-01-24 04:34:00,41.2,31.0,30.02,SW,234,0.0,-999.0,67,-99.99,,,0.00,weatherlink.com 1.10,2013-01-24 09:34:00,
2013-01-24 04:49:00,40.8,31.0,30.03,West,267,0.0,-999.0,68,-99.99,,,0.00,weatherlink.com 1.10,2013-01-24 09:49:00,
2013-01-24 05:04:00,39.5,30.0,30.04,NE,51,0.0,-999.0,69,-99.99,,,0.00,weatherlink.com 1.10,2013-01-24 10:04:00,
2013-01-24 05:19:00,38.2,30.0,30.04,North,5,2.0,-999.0,72,-99.99,,,0.00,weatherlink.com 1.10,2013-01-24 10:19:00,
2013-01-24 05:34:00,37.9,30.0,30.05,North,9,1.0,-999.0,73,-99.99,,,0.00,weatherlink.com 1.10,2013-01-24 10:34:00,
2013-01-24 05:49:00,37.7,30.0,30.05,SW,221,0.0,-999.0,75,-99.99,,,0.00,weatherlink.com 1.10,2013-01-24 10:49:00,
2013-01-24 06:04:00,37.1,30.0,30.05,SW,221,0.0,-999.0,75,-99.99,,,0.00,weatherlink.com 1.10,2013-01-24 11:04:00,
2013-01-24 06:19:00,36.3,30.0,30.05,SW,221,0.0,-999.0,77,-99.99,,,0.00,weatherlink.com 1.10,2013-01-24 11:19:00,
2013-01-24 06:35:00,38.8,32.0,30.07,WSW,239,0.0,-999.0,75,-99.99,,,0.00,weatherlink.com 1.10,2013-01-24 11:35:00,
2013-01-24 06:50:00,41.2,31.0,30.07,WSW,237,2.0,-999.0,68,-99.99,,,0.00,weatherlink.com 1.10,2013-01-24 11:50:00,
2013-01-24 07:04:00,42.2,31.0,30.07,WSW,242,3.0,-999.0,64,-99.99,,,0.00,weatherlink.com 1.10,2013-01-24 12:04:00,
2013-01-24 07:20:00,43.1,30.0,30.08,SW,235,2.0,-999.0,60,-99.99,,,0.00,weatherlink.com 1.10,2013-01-24 12:20:00,
2013-01-24 07:35:00,43.7,29.0,30.09,WSW,240,2.0,-999.0,56,-99.99,,,0.00,weatherlink.com 1.10,2013-01-24 12:35:00,
2013-01-24 07:50:00,44.5,29.0,30.10,WSW,246,1.0,-999.0,54,-99.99,,,0.00,weatherlink.com 1.10,2013-01-24 12:50:00,
2013-01-24 08:05:00,44.8,27.0,30.10,West,259,3.0,-999.0,51,-99.99,,,0.00,weatherlink.com 1.10,2013-01-24 13:05:00,
2013-01-24 08:20:00,45.0,27.0,30.12,SW,228,3.0,-999.0,49,-99.99,,,0.00,weatherlink.com 1.10,2013-01-24 13:20:00,
2013-01-24 08:35:00,44.6,29.0,30.14,NNW,342,3.0,-999.0,54,-99.99,,,0.00,weatherlink.com 1.10,2013-01-24 13:35:00,
2013-01-24 08:50:00,43.5,28.0,30.15,WSW,245,2.0,-999.0,54,-99.99,,,0.00,weatherlink.com 1.10,2013-01-24 13:50:00,
2013-01-24 09:05:00,45.1,27.0,30.17,WSW,238,0.0,-999.0,50,-99.99,,,0.00,weatherlink.com 1.10,2013-01-24 14:05:00,
2013-01-24 09:20:00,46.3,27.0,30.18,NW,313,1.0,-999.0,48,-99.99,,,0.00,weatherlink.com 1.10,2013-01-24 14:20:00,
2013-01-24 09:36:00,46.3,25.0,30.19,NNW,332,1.0,-999.0,44,-99.99,,,0.00,weatherlink.com 1.10,2013-01-24 14:36:00,
2013-01-24 09:51:00,46.2,24.0,30.20,NE,44,0.0,-999.0,42,-99.99,,,0.00,weatherlink.com 1.10,2013-01-24 14:51:00,
2013-01-24 10:06:00,46.2,21.0,30.21,WSW,248,2.0,-999.0,37,-99.99,,,0.00,weatherlink.com 1.10,2013-01-24 15:06:00,
2013-01-24 10:21:00,46.1,17.0,30.22,WSW,255,1.0,-999.0,31,-99.99,,,0.00,weatherlink.com 1.10,2013-01-24 15:21:00,
2013-01-24 10:36:00,46.7,15.0,30.23,West,270,0.0,-999.0,28,-99.99,,,0.00,weatherlink.com 1.10,2013-01-24 15:36:00,
2013-01-24 10:51:00,46.9,15.0,30.25,West,271,3.0,-999.0,28,-99.99,,,0.00,weatherlink.com 1.10,2013-01-24 15:51:00,
2013-01-24 11:07:00,46.6,14.0,30.25,NNE,20,9.0,-999.0,27,-99.99,,,0.00,weatherlink.com 1.10,2013-01-24 16:07:00,
2013-01-24 11:21:00,47.4,11.0,30.26,WSW,246,3.0,-999.0,23,-99.99,,,0.00,weatherlink.com 1.10,2013-01-24 16:21:00,
2013-01-24 11:36:00,47.4,9.0,30.26,WSW,248,4.0,-999.0,21,-99.99,,,0.00,weatherlink.com 1.10,2013-01-24 16:36:00,
2013-01-24 11:52:00,47.6,11.0,30.27,West,279,1.0,-999.0,23,-99.99,,,0.00,weatherlink.com 1.10,2013-01-24 16:52:00,
2013-01-24 12:07:00,48.7,12.0,30.28,NNW,333,0.0,-999.0,23,-99.99,,,0.00,weatherlink.com 1.10,2013-01-24 17:07:00,
2013-01-24 12:22:00,49.0,12.0,30.27,NW,306,1.0,-999.0,23,-99.99,,,0.00,weatherlink.com 1.10,2013-01-24 17:22:00,
2013-01-24 12:37:00,49.3,14.0,30.27,NNW,336,4.0,-999.0,24,-99.99,,,0.00,weatherlink.com 1.10,2013-01-24 17:37:00,
2013-01-24 12:52:00,49.1,13.0,30.27,ENE,67,0.0,-999.0,23,-99.99,,,0.00,weatherlink.com 1.10,2013-01-24 17:52:00,
2013-01-24 13:07:00,49.2,13.0,30.28,NNE,28,1.0,-999.0,23,-99.99,,,0.00,weatherlink.com 1.10,2013-01-24 18:07:00,
2013-01-24 13:22:00,49.2,15.0,30.28,SE,138,4.0,-999.0,26,-99.99,,,0.00,weatherlink.com 1.10,2013-01-24 18:22:00,
2013-01-24 13:38:00,49.1,14.0,30.29,ENE,65,4.0,-999.0,24,-99.99,,,0.00,weatherlink.com 1.10,2013-01-24 18:38:00,
2013-01-24 14:09:00,49.2,13.0,30.29,NNE,29,3.0,-999.0,23,-99.99,,,0.00,weatherlink.com 1.10,2013-01-24 19:09:00,
2013-01-24 14:23:00,49.3,13.0,30.29,NNW,333,5.0,-999.0,23,-99.99,,,0.00,weatherlink.com 1.10,2013-01-24 19:23:00,
2013-01-24 14:38:00,49.6,15.0,30.29,ENE,74,4.0,-999.0,25,-99.99,,,0.00,weatherlink.com 1.10,2013-01-24 19:38:00,
2013-01-24 14:54:00,49.0,12.0,30.31,West,276,3.0,-999.0,23,-99.99,,,0.00,weatherlink.com 1.10,2013-01-24 19:54:00,
2013-01-24 15:08:00,48.8,13.0,30.31,ENE,66,3.0,-999.0,24,-99.99,,,0.00,weatherlink.com 1.10,2013-01-24 20:08:00,
2013-01-24 15:23:00,48.3,13.0,30.32,ENE,63,1.0,-999.0,24,-99.99,,,0.00,weatherlink.com 1.10,2013-01-24 20:23:00,
2013-01-24 15:38:00,47.7,12.0,30.33,NNW,342,3.0,-999.0,24,-99.99,,,0.00,weatherlink.com 1.10,2013-01-24 20:38:00,
2013-01-24 15:53:00,46.2,9.0,30.33,NE,38,3.0,-999.0,22,-99.99,,,0.00,weatherlink.com 1.10,2013-01-24 20:53:00,
2013-01-24 16:08:00,45.2,8.0,30.35,East,81,3.0,-999.0,22,-99.99,,,0.00,weatherlink.com 1.10,2013-01-24 21:08:00,
2013-01-24 16:24:00,44.4,10.0,30.36,SE,145,2.0,-999.0,24,-99.99,,,0.00,weatherlink.com 1.10,2013-01-24 21:24:00,
2013-01-24 16:38:00,42.2,11.0,30.36,NE,44,3.0,-999.0,28,-99.99,,,0.00,weatherlink.com 1.10,2013-01-24 21:38:00,
2013-01-24 16:53:00,40.5,10.0,30.37,NNE,13,3.0,-999.0,29,-99.99,,,0.00,weatherlink.com 1.10,2013-01-24 21:53:00,
2013-01-24 17:09:00,39.0,10.0,30.37,NE,55,8.0,-999.0,30,-99.99,,,0.00,weatherlink.com 1.10,2013-01-24 22:09:00,
2013-01-24 17:24:00,37.5,9.0,30.39,NE,53,1.0,-999.0,30,-99.99,,,0.00,weatherlink.com 1.10,2013-01-24 22:24:00,
2013-01-24 17:39:00,36.4,9.0,30.40,NNE,18,1.0,-999.0,32,-99.99,,,0.00,weatherlink.com 1.10,2013-01-24 22:39:00,
2013-01-24 17:54:00,35.5,8.0,30.41,NE,49,1.0,-999.0,32,-99.99,,,0.00,weatherlink.com 1.10,2013-01-24 22:54:00,
2013-01-24 18:09:00,34.7,8.0,30.42,ENE,74,2.0,-999.0,33,-99.99,,,0.00,weatherlink.com 1.10,2013-01-24 23:09:00,
2013-01-24 18:24:00,34.1,8.0,30.42,North,355,3.0,-999.0,33,-99.99,,,0.00,weatherlink.com 1.10,2013-01-24 23:24:00,
2013-01-24 18:39:00,33.6,7.0,30.44,NNE,30,0.0,-999.0,33,-99.99,,,0.00,weatherlink.com 1.10,2013-01-24 23:39:00,
2013-01-24 18:54:00,33.0,7.0,30.45,NNE,17,0.0,-999.0,33,-99.99,,,0.00,weatherlink.com 1.10,2013-01-24 23:54:00,
2013-01-24 19:09:00,32.4,7.0,30.45,ENE,63,0.0,-999.0,34,-99.99,,,0.00,weatherlink.com 1.10,2013-01-25 00:09:00,
2013-01-24 19:24:00,32.0,6.0,30.46,North,11,3.0,-999.0,34,-99.99,,,0.00,weatherlink.com 1.10,2013-01-25 00:24:00,
2013-01-24 19:40:00,31.5,6.0,30.46,NE,39,1.0,-999.0,34,-99.99,,,0.00,weatherlink.com 1.10,2013-01-25 00:40:00,
2013-01-24 19:55:00,31.0,6.0,30.47,NE,39,0.0,-999.0,35,-99.99,,,0.00,weatherlink.com 1.10,2013-01-25 00:55:00,
2013-01-24 20:10:00,30.4,6.0,30.47,NNW,341,0.0,-999.0,36,-99.99,,,0.00,weatherlink.com 1.10,2013-01-25 01:10:00,
2013-01-24 20:25:00,30.2,5.0,30.48,ENE,63,2.0,-999.0,35,-99.99,,,0.00,weatherlink.com 1.10,2013-01-25 01:25:00,
2013-01-24 20:40:00,29.9,5.0,30.48,East,82,0.0,-999.0,35,-99.99,,,0.00,weatherlink.com 1.10,2013-01-25 01:40:00,
2013-01-24 20:55:00,29.4,6.0,30.48,East,80,1.0,-999.0,37,-99.99,,,0.00,weatherlink.com 1.10,2013-01-25 01:55:00,
2013-01-24 21:10:00,29.4,5.0,30.50,East,97,1.0,-999.0,36,-99.99,,,0.00,weatherlink.com 1.10,2013-01-25 02:10:00,
2013-01-24 21:25:00,29.3,5.0,30.50,NNE,23,1.0,-999.0,36,-99.99,,,0.00,weatherlink.com 1.10,2013-01-25 02:25:00,
2013-01-24 21:41:00,29.0,6.0,30.50,NE,40,0.0,-999.0,37,-99.99,,,0.00,weatherlink.com 1.10,2013-01-25 02:41:00,
2013-01-24 21:56:00,28.7,6.0,30.50,North,11,0.0,-999.0,38,-99.99,,,0.00,weatherlink.com 1.10,2013-01-25 02:56:00,
2013-01-24 22:11:00,28.3,6.0,30.50,ENE,63,0.0,-999.0,39,-99.99,,,0.00,weatherlink.com 1.10,2013-01-25 03:11:00,
2013-01-24 22:26:00,27.8,8.0,30.51,East,90,0.0,-999.0,43,-99.99,,,0.00,weatherlink.com 1.10,2013-01-25 03:26:00,
2013-01-24 22:41:00,27.4,6.0,30.52,NNE,12,0.0,-999.0,41,-99.99,,,0.00,weatherlink.com 1.10,2013-01-25 03:41:00,
2013-01-24 22:56:00,27.5,6.0,30.53,NNE,12,0.0,-999.0,40,-99.99,,,0.00,weatherlink.com 1.10,2013-01-25 03:56:00,
2013-01-24 23:11:00,27.1,7.0,30.52,NNE,13,0.0,-999.0,43,-99.99,,,0.00,weatherlink.com 1.10,2013-01-25 04:11:00,
2013-01-24 23:26:00,26.6,8.0,30.53,NNE,13,0.0,-999.0,45,-99.99,,,0.00,weatherlink.com 1.10,2013-01-25 04:26:00,
2013-01-24 23:41:00,26.0,8.0,30.53,NNE,13,0.0,-999.0,46,-99.99,,,0.00,weatherlink.com 1.10,2013-01-25 04:41:00,
2013-01-24 23:56:00,25.3,8.0,30.54,NNE,13,0.0,-999.0,49,-99.99,,,0.00,weatherlink.com 1.10,2013-01-25 04:56:00,